sensor_id;sensor_type;location;lat;lon;timestamp;P1;durP1;ratioP1;P2;durP2;ratioP2
33160;SDS011;19522;45.656;11.302;2024-02-23T00:00:10;1.63;;;1.10;;
33160;SDS011;19522;45.656;11.302;2024-02-23T00:02:37;1.95;;;1.23;;
33160;SDS011;19522;45.656;11.302;2024-02-23T00:05:03;2.38;;;1.45;;
33160;SDS011;19522;45.656;11.302;2024-02-23T00:07:29;1.90;;;1.40;;
33160;SDS011;19522;45.656;11.302;2024-02-23T00:09:55;2.28;;;1.50;;
33160;SDS011;19522;45.656;11.302;2024-02-23T00:12:23;4.10;;;1.70;;
33160;SDS011;19522;45.656;11.302;2024-02-23T00:14:49;2.53;;;1.52;;
33160;SDS011;19522;45.656;11.302;2024-02-23T00:17:16;2.40;;;1.70;;
33160;SDS011;19522;45.656;11.302;2024-02-23T00:19:41;2.38;;;1.48;;
33160;SDS011;19522;45.656;11.302;2024-02-23T00:22:07;3.38;;;1.33;;
33160;SDS011;19522;45.656;11.302;2024-02-23T00:24:32;3.28;;;1.70;;
33160;SDS011;19522;45.656;11.302;2024-02-23T00:26:58;4.13;;;2.25;;
33160;SDS011;19522;45.656;11.302;2024-02-23T00:29:23;3.65;;;1.67;;
33160;SDS011;19522;45.656;11.302;2024-02-23T00:31:49;2.58;;;1.63;;
33160;SDS011;19522;45.656;11.302;2024-02-23T00:34:15;3.53;;;1.38;;
33160;SDS011;19522;45.656;11.302;2024-02-23T00:36:41;3.22;;;1.75;;
33160;SDS011;19522;45.656;11.302;2024-02-23T00:39:09;4.50;;;1.92;;
33160;SDS011;19522;45.656;11.302;2024-02-23T00:41:35;2.92;;;1.58;;
33160;SDS011;19522;45.656;11.302;2024-02-23T00:44:02;1.65;;;1.20;;
33160;SDS011;19522;45.656;11.302;2024-02-23T00:46:28;3.88;;;1.80;;
33160;SDS011;19522;45.656;11.302;2024-02-23T00:48:54;1.95;;;1.20;;
33160;SDS011;19522;45.656;11.302;2024-02-23T00:51:19;2.05;;;1.23;;
33160;SDS011;19522;45.656;11.302;2024-02-23T00:53:45;2.50;;;1.58;;
33160;SDS011;19522;45.656;11.302;2024-02-23T00:56:10;2.75;;;1.00;;
33160;SDS011;19522;45.656;11.302;2024-02-23T00:58:36;2.38;;;0.93;;
33160;SDS011;19522;45.656;11.302;2024-02-23T01:01:02;1.55;;;0.85;;
33160;SDS011;19522;45.656;11.302;2024-02-23T01:03:27;1.38;;;0.90;;
33160;SDS011;19522;45.656;11.302;2024-02-23T01:05:53;1.13;;;0.80;;
33160;SDS011;19522;45.656;11.302;2024-02-23T01:08:19;1.35;;;0.80;;
33160;SDS011;19522;45.656;11.302;2024-02-23T01:10:45;0.73;;;0.50;;
33160;SDS011;19522;45.656;11.302;2024-02-23T01:13:10;1.85;;;0.80;;
33160;SDS011;19522;45.656;11.302;2024-02-23T01:15:36;0.98;;;0.60;;
33160;SDS011;19522;45.656;11.302;2024-02-23T01:18:03;1.33;;;0.63;;
33160;SDS011;19522;45.656;11.302;2024-02-23T01:20:31;0.98;;;0.80;;
33160;SDS011;19522;45.656;11.302;2024-02-23T01:23:02;1.13;;;0.82;;
33160;SDS011;19522;45.656;11.302;2024-02-23T01:25:28;1.33;;;0.77;;
33160;SDS011;19522;45.656;11.302;2024-02-23T01:27:56;2.00;;;0.70;;
33160;SDS011;19522;45.656;11.302;2024-02-23T01:30:22;0.95;;;0.70;;
33160;SDS011;19522;45.656;11.302;2024-02-23T01:32:48;1.88;;;0.85;;
33160;SDS011;19522;45.656;11.302;2024-02-23T01:35:15;1.00;;;0.70;;
33160;SDS011;19522;45.656;11.302;2024-02-23T01:37:41;0.98;;;0.60;;
33160;SDS011;19522;45.656;11.302;2024-02-23T01:40:06;0.52;;;0.52;;
33160;SDS011;19522;45.656;11.302;2024-02-23T01:42:35;1.02;;;0.70;;
33160;SDS011;19522;45.656;11.302;2024-02-23T01:45:01;0.60;;;0.60;;
33160;SDS011;19522;45.656;11.302;2024-02-23T01:47:27;1.52;;;1.10;;
33160;SDS011;19522;45.656;11.302;2024-02-23T01:49:54;1.17;;;0.60;;
33160;SDS011;19522;45.656;11.302;2024-02-23T01:52:22;0.70;;;0.50;;
33160;SDS011;19522;45.656;11.302;2024-02-23T01:54:47;1.13;;;0.70;;
33160;SDS011;19522;45.656;11.302;2024-02-23T01:57:14;0.85;;;0.60;;
33160;SDS011;19522;45.656;11.302;2024-02-23T01:59:42;0.85;;;0.57;;
33160;SDS011;19522;45.656;11.302;2024-02-23T02:02:08;1.90;;;0.70;;
33160;SDS011;19522;45.656;11.302;2024-02-23T02:04:34;0.82;;;0.65;;
33160;SDS011;19522;45.656;11.302;2024-02-23T02:06:59;3.33;;;0.60;;
33160;SDS011;19522;45.656;11.302;2024-02-23T02:09:26;0.55;;;0.50;;
33160;SDS011;19522;45.656;11.302;2024-02-23T02:11:51;2.10;;;0.63;;
33160;SDS011;19522;45.656;11.302;2024-02-23T02:14:17;0.88;;;0.50;;
33160;SDS011;19522;45.656;11.302;2024-02-23T02:16:43;0.82;;;0.57;;
33160;SDS011;19522;45.656;11.302;2024-02-23T02:19:09;0.80;;;0.50;;
33160;SDS011;19522;45.656;11.302;2024-02-23T02:21:35;0.50;;;0.50;;
33160;SDS011;19522;45.656;11.302;2024-02-23T02:24:02;0.85;;;0.50;;
33160;SDS011;19522;45.656;11.302;2024-02-23T02:26:28;0.88;;;0.55;;
33160;SDS011;19522;45.656;11.302;2024-02-23T02:28:54;1.42;;;0.65;;
33160;SDS011;19522;45.656;11.302;2024-02-23T02:31:20;0.80;;;0.60;;
33160;SDS011;19522;45.656;11.302;2024-02-23T02:33:45;0.40;;;0.40;;
33160;SDS011;19522;45.656;11.302;2024-02-23T02:36:11;1.08;;;0.60;;
33160;SDS011;19522;45.656;11.302;2024-02-23T02:38:37;0.40;;;0.40;;
33160;SDS011;19522;45.656;11.302;2024-02-23T02:41:03;0.85;;;0.60;;
33160;SDS011;19522;45.656;11.302;2024-02-23T02:43:28;0.85;;;0.50;;
33160;SDS011;19522;45.656;11.302;2024-02-23T02:45:54;0.70;;;0.70;;
33160;SDS011;19522;45.656;11.302;2024-02-23T02:48:19;0.95;;;0.50;;
33160;SDS011;19522;45.656;11.302;2024-02-23T02:50:45;0.60;;;0.50;;
33160;SDS011;19522;45.656;11.302;2024-02-23T02:53:10;0.60;;;0.50;;
33160;SDS011;19522;45.656;11.302;2024-02-23T02:55:37;2.00;;;0.75;;
33160;SDS011;19522;45.656;11.302;2024-02-23T02:58:06;0.73;;;0.50;;
33160;SDS011;19522;45.656;11.302;2024-02-23T03:00:32;0.43;;;0.40;;
33160;SDS011;19522;45.656;11.302;2024-02-23T03:02:58;0.88;;;0.50;;
33160;SDS011;19522;45.656;11.302;2024-02-23T03:05:26;0.50;;;0.50;;
33160;SDS011;19522;45.656;11.302;2024-02-23T03:07:52;1.00;;;0.52;;
33160;SDS011;19522;45.656;11.302;2024-02-23T03:10:17;0.75;;;0.50;;
33160;SDS011;19522;45.656;11.302;2024-02-23T03:12:43;1.00;;;0.50;;
33160;SDS011;19522;45.656;11.302;2024-02-23T03:15:09;0.70;;;0.40;;
33160;SDS011;19522;45.656;11.302;2024-02-23T03:17:35;0.90;;;0.50;;
33160;SDS011;19522;45.656;11.302;2024-02-23T03:20:01;0.50;;;0.50;;
33160;SDS011;19522;45.656;11.302;2024-02-23T03:22:34;0.55;;;0.50;;
33160;SDS011;19522;45.656;11.302;2024-02-23T03:25:03;0.80;;;0.60;;
33160;SDS011;19522;45.656;11.302;2024-02-23T03:27:33;1.92;;;0.73;;
33160;SDS011;19522;45.656;11.302;2024-02-23T03:30:04;0.40;;;0.40;;
33160;SDS011;19522;45.656;11.302;2024-02-23T03:32:33;0.63;;;0.50;;
33160;SDS011;19522;45.656;11.302;2024-02-23T03:35:02;0.52;;;0.50;;
33160;SDS011;19522;45.656;11.302;2024-02-23T03:37:29;1.55;;;0.50;;
33160;SDS011;19522;45.656;11.302;2024-02-23T03:42:30;0.43;;;0.43;;
33160;SDS011;19522;45.656;11.302;2024-02-23T03:44:55;0.40;;;0.40;;
33160;SDS011;19522;45.656;11.302;2024-02-23T03:47:21;0.75;;;0.52;;
33160;SDS011;19522;45.656;11.302;2024-02-23T03:49:46;1.10;;;0.50;;
33160;SDS011;19522;45.656;11.302;2024-02-23T03:52:12;0.73;;;0.50;;
33160;SDS011;19522;45.656;11.302;2024-02-23T03:54:37;0.47;;;0.40;;
33160;SDS011;19522;45.656;11.302;2024-02-23T03:57:03;0.70;;;0.50;;
33160;SDS011;19522;45.656;11.302;2024-02-23T03:59:28;1.80;;;0.45;;
33160;SDS011;19522;45.656;11.302;2024-02-23T04:01:54;0.50;;;0.50;;
33160;SDS011;19522;45.656;11.302;2024-02-23T04:04:20;0.43;;;0.43;;
33160;SDS011;19522;45.656;11.302;2024-02-23T04:06:45;1.00;;;0.50;;
33160;SDS011;19522;45.656;11.302;2024-02-23T04:09:11;1.05;;;0.60;;
33160;SDS011;19522;45.656;11.302;2024-02-23T04:11:36;0.82;;;0.50;;
33160;SDS011;19522;45.656;11.302;2024-02-23T04:14:02;0.70;;;0.52;;
33160;SDS011;19522;45.656;11.302;2024-02-23T04:16:30;0.68;;;0.50;;
33160;SDS011;19522;45.656;11.302;2024-02-23T04:18:56;1.45;;;0.60;;
33160;SDS011;19522;45.656;11.302;2024-02-23T04:21:21;0.95;;;0.70;;
33160;SDS011;19522;45.656;11.302;2024-02-23T04:23:47;1.73;;;0.77;;
33160;SDS011;19522;45.656;11.302;2024-02-23T04:26:13;1.08;;;0.70;;
33160;SDS011;19522;45.656;11.302;2024-02-23T04:28:42;0.40;;;0.40;;
33160;SDS011;19522;45.656;11.302;2024-02-23T04:31:08;0.73;;;0.55;;
33160;SDS011;19522;45.656;11.302;2024-02-23T04:33:35;1.85;;;0.73;;
33160;SDS011;19522;45.656;11.302;2024-02-23T04:36:01;0.77;;;0.60;;
33160;SDS011;19522;45.656;11.302;2024-02-23T04:38:28;2.25;;;0.95;;
33160;SDS011;19522;45.656;11.302;2024-02-23T04:40:54;1.20;;;0.60;;
33160;SDS011;19522;45.656;11.302;2024-02-23T04:43:20;0.75;;;0.60;;
33160;SDS011;19522;45.656;11.302;2024-02-23T04:45:48;1.20;;;0.80;;
33160;SDS011;19522;45.656;11.302;2024-02-23T04:48:14;2.30;;;0.95;;
33160;SDS011;19522;45.656;11.302;2024-02-23T04:50:39;0.70;;;0.70;;
33160;SDS011;19522;45.656;11.302;2024-02-23T04:53:05;0.75;;;0.60;;
33160;SDS011;19522;45.656;11.302;2024-02-23T04:55:30;0.68;;;0.43;;
33160;SDS011;19522;45.656;11.302;2024-02-23T04:57:56;0.82;;;0.60;;
33160;SDS011;19522;45.656;11.302;2024-02-23T05:00:21;0.77;;;0.60;;
33160;SDS011;19522;45.656;11.302;2024-02-23T05:02:47;0.40;;;0.40;;
33160;SDS011;19522;45.656;11.302;2024-02-23T05:05:13;1.70;;;0.88;;
33160;SDS011;19522;45.656;11.302;2024-02-23T05:07:38;1.50;;;0.80;;
33160;SDS011;19522;45.656;11.302;2024-02-23T05:10:04;1.85;;;0.88;;
33160;SDS011;19522;45.656;11.302;2024-02-23T05:12:30;0.70;;;0.47;;
33160;SDS011;19522;45.656;11.302;2024-02-23T05:14:55;1.42;;;0.63;;
33160;SDS011;19522;45.656;11.302;2024-02-23T05:17:21;0.65;;;0.60;;
33160;SDS011;19522;45.656;11.302;2024-02-23T05:19:46;1.63;;;0.75;;
33160;SDS011;19522;45.656;11.302;2024-02-23T05:22:12;0.55;;;0.50;;
33160;SDS011;19522;45.656;11.302;2024-02-23T05:24:38;1.63;;;0.70;;
33160;SDS011;19522;45.656;11.302;2024-02-23T05:27:04;0.60;;;0.50;;
33160;SDS011;19522;45.656;11.302;2024-02-23T05:29:29;0.50;;;0.50;;
33160;SDS011;19522;45.656;11.302;2024-02-23T05:31:55;1.13;;;0.70;;
33160;SDS011;19522;45.656;11.302;2024-02-23T05:34:21;0.88;;;0.63;;
33160;SDS011;19522;45.656;11.302;2024-02-23T05:36:47;0.60;;;0.60;;
33160;SDS011;19522;45.656;11.302;2024-02-23T05:39:13;1.50;;;0.52;;
33160;SDS011;19522;45.656;11.302;2024-02-23T05:41:42;0.90;;;0.80;;
33160;SDS011;19522;45.656;11.302;2024-02-23T05:44:08;2.22;;;0.90;;
33160;SDS011;19522;45.656;11.302;2024-02-23T05:46:35;2.25;;;1.10;;
33160;SDS011;19522;45.656;11.302;2024-02-23T05:49:04;2.03;;;1.10;;
33160;SDS011;19522;45.656;11.302;2024-02-23T05:51:30;1.70;;;1.00;;
33160;SDS011;19522;45.656;11.302;2024-02-23T05:53:56;9.32;;;6.68;;
33160;SDS011;19522;45.656;11.302;2024-02-23T05:56:22;3.13;;;2.00;;
33160;SDS011;19522;45.656;11.302;2024-02-23T05:58:51;2.67;;;1.20;;
33160;SDS011;19522;45.656;11.302;2024-02-23T06:01:17;2.38;;;1.30;;
33160;SDS011;19522;45.656;11.302;2024-02-23T06:03:43;1.40;;;1.27;;
33160;SDS011;19522;45.656;11.302;2024-02-23T06:06:09;2.88;;;1.58;;
33160;SDS011;19522;45.656;11.302;2024-02-23T06:08:35;2.80;;;1.70;;
33160;SDS011;19522;45.656;11.302;2024-02-23T06:11:01;3.63;;;1.70;;
33160;SDS011;19522;45.656;11.302;2024-02-23T06:13:28;2.05;;;1.60;;
33160;SDS011;19522;45.656;11.302;2024-02-23T06:15:55;1.58;;;1.15;;
33160;SDS011;19522;45.656;11.302;2024-02-23T06:18:24;5.18;;;2.92;;
33160;SDS011;19522;45.656;11.302;2024-02-23T06:20:49;4.70;;;2.70;;
33160;SDS011;19522;45.656;11.302;2024-02-23T06:23:15;6.20;;;3.70;;
33160;SDS011;19522;45.656;11.302;2024-02-23T06:25:42;3.03;;;1.83;;
33160;SDS011;19522;45.656;11.302;2024-02-23T06:28:08;3.15;;;2.03;;
33160;SDS011;19522;45.656;11.302;2024-02-23T06:30:33;4.47;;;2.53;;
33160;SDS011;19522;45.656;11.302;2024-02-23T06:32:58;6.65;;;4.75;;
33160;SDS011;19522;45.656;11.302;2024-02-23T06:35:24;2.90;;;1.95;;
33160;SDS011;19522;45.656;11.302;2024-02-23T06:37:49;4.22;;;2.25;;
33160;SDS011;19522;45.656;11.302;2024-02-23T06:40:15;3.42;;;2.30;;
33160;SDS011;19522;45.656;11.302;2024-02-23T06:42:40;3.05;;;2.15;;
33160;SDS011;19522;45.656;11.302;2024-02-23T06:45:06;3.33;;;2.88;;
33160;SDS011;19522;45.656;11.302;2024-02-23T06:47:33;2.03;;;1.75;;
33160;SDS011;19522;45.656;11.302;2024-02-23T06:49:59;2.65;;;1.60;;
33160;SDS011;19522;45.656;11.302;2024-02-23T06:52:24;1.10;;;1.00;;
33160;SDS011;19522;45.656;11.302;2024-02-23T06:54:51;2.53;;;1.50;;
33160;SDS011;19522;45.656;11.302;2024-02-23T06:57:17;2.17;;;1.50;;
33160;SDS011;19522;45.656;11.302;2024-02-23T06:59:43;3.60;;;1.90;;
33160;SDS011;19522;45.656;11.302;2024-02-23T07:02:08;2.58;;;1.70;;
33160;SDS011;19522;45.656;11.302;2024-02-23T07:04:34;3.33;;;1.60;;
33160;SDS011;19522;45.656;11.302;2024-02-23T07:06:59;2.03;;;1.63;;
33160;SDS011;19522;45.656;11.302;2024-02-23T07:09:31;2.35;;;1.40;;
33160;SDS011;19522;45.656;11.302;2024-02-23T07:11:57;3.03;;;2.10;;
33160;SDS011;19522;45.656;11.302;2024-02-23T07:14:22;3.45;;;2.10;;
33160;SDS011;19522;45.656;11.302;2024-02-23T07:16:48;41.63;;;25.10;;
33160;SDS011;19522;45.656;11.302;2024-02-23T07:19:13;6.15;;;3.33;;
33160;SDS011;19522;45.656;11.302;2024-02-23T07:21:39;19.65;;;12.05;;
33160;SDS011;19522;45.656;11.302;2024-02-23T07:24:04;5.25;;;3.40;;
33160;SDS011;19522;45.656;11.302;2024-02-23T07:26:33;6.05;;;3.60;;
33160;SDS011;19522;45.656;11.302;2024-02-23T07:28:58;24.55;;;10.65;;
33160;SDS011;19522;45.656;11.302;2024-02-23T07:31:24;12.95;;;5.72;;
33160;SDS011;19522;45.656;11.302;2024-02-23T07:33:50;7.43;;;4.70;;
33160;SDS011;19522;45.656;11.302;2024-02-23T07:36:16;6.25;;;3.70;;
33160;SDS011;19522;45.656;11.302;2024-02-23T07:38:42;3.95;;;2.85;;
33160;SDS011;19522;45.656;11.302;2024-02-23T07:41:11;6.38;;;4.72;;
33160;SDS011;19522;45.656;11.302;2024-02-23T07:43:38;5.68;;;4.07;;
33160;SDS011;19522;45.656;11.302;2024-02-23T07:46:04;5.38;;;3.90;;
33160;SDS011;19522;45.656;11.302;2024-02-23T07:48:33;9.43;;;4.07;;
33160;SDS011;19522;45.656;11.302;2024-02-23T07:50:59;5.65;;;3.80;;
33160;SDS011;19522;45.656;11.302;2024-02-23T07:53:24;5.75;;;3.35;;
33160;SDS011;19522;45.656;11.302;2024-02-23T07:55:50;5.15;;;4.05;;
33160;SDS011;19522;45.656;11.302;2024-02-23T07:58:15;5.55;;;4.47;;
33160;SDS011;19522;45.656;11.302;2024-02-23T08:00:41;8.55;;;6.13;;
33160;SDS011;19522;45.656;11.302;2024-02-23T08:03:06;6.07;;;3.95;;
33160;SDS011;19522;45.656;11.302;2024-02-23T08:05:33;2.97;;;2.38;;
33160;SDS011;19522;45.656;11.302;2024-02-23T08:07:58;4.18;;;2.95;;
33160;SDS011;19522;45.656;11.302;2024-02-23T08:10:24;3.92;;;2.60;;
33160;SDS011;19522;45.656;11.302;2024-02-23T08:12:51;4.28;;;2.92;;
33160;SDS011;19522;45.656;11.302;2024-02-23T08:15:16;4.13;;;2.60;;
33160;SDS011;19522;45.656;11.302;2024-02-23T08:17:42;4.25;;;2.72;;
33160;SDS011;19522;45.656;11.302;2024-02-23T08:20:07;4.07;;;2.65;;
33160;SDS011;19522;45.656;11.302;2024-02-23T08:22:33;2.28;;;1.63;;
33160;SDS011;19522;45.656;11.302;2024-02-23T08:24:59;2.97;;;1.90;;
33160;SDS011;19522;45.656;11.302;2024-02-23T08:27:24;2.75;;;1.92;;
33160;SDS011;19522;45.656;11.302;2024-02-23T08:29:50;3.08;;;1.90;;
33160;SDS011;19522;45.656;11.302;2024-02-23T08:32:15;5.35;;;3.03;;
33160;SDS011;19522;45.656;11.302;2024-02-23T08:34:42;4.75;;;3.45;;
33160;SDS011;19522;45.656;11.302;2024-02-23T08:37:07;7.15;;;3.50;;
33160;SDS011;19522;45.656;11.302;2024-02-23T08:39:33;5.07;;;3.55;;
33160;SDS011;19522;45.656;11.302;2024-02-23T08:42:00;4.47;;;3.38;;
33160;SDS011;19522;45.656;11.302;2024-02-23T08:44:26;3.80;;;2.45;;
33160;SDS011;19522;45.656;11.302;2024-02-23T08:46:51;4.25;;;2.47;;
33160;SDS011;19522;45.656;11.302;2024-02-23T08:49:17;6.60;;;2.90;;
33160;SDS011;19522;45.656;11.302;2024-02-23T08:51:42;3.28;;;2.30;;
33160;SDS011;19522;45.656;11.302;2024-02-23T08:54:11;4.32;;;2.75;;
33160;SDS011;19522;45.656;11.302;2024-02-23T08:56:39;4.30;;;3.15;;
33160;SDS011;19522;45.656;11.302;2024-02-23T08:59:07;6.30;;;4.10;;
33160;SDS011;19522;45.656;11.302;2024-02-23T09:01:33;5.45;;;4.22;;
33160;SDS011;19522;45.656;11.302;2024-02-23T09:03:58;5.03;;;3.70;;
33160;SDS011;19522;45.656;11.302;2024-02-23T09:06:24;7.97;;;4.88;;
33160;SDS011;19522;45.656;11.302;2024-02-23T09:08:49;5.13;;;4.15;;
33160;SDS011;19522;45.656;11.302;2024-02-23T09:11:14;4.28;;;3.00;;
33160;SDS011;19522;45.656;11.302;2024-02-23T09:13:40;3.55;;;2.33;;
33160;SDS011;19522;45.656;11.302;2024-02-23T09:16:07;4.80;;;3.20;;
33160;SDS011;19522;45.656;11.302;2024-02-23T09:18:33;12.07;;;9.20;;
33160;SDS011;19522;45.656;11.302;2024-02-23T09:20:59;6.03;;;4.85;;
33160;SDS011;19522;45.656;11.302;2024-02-23T09:23:25;8.23;;;6.82;;
33160;SDS011;19522;45.656;11.302;2024-02-23T09:25:51;7.13;;;4.75;;
33160;SDS011;19522;45.656;11.302;2024-02-23T09:28:16;7.68;;;4.20;;
33160;SDS011;19522;45.656;11.302;2024-02-23T09:30:42;5.03;;;3.80;;
33160;SDS011;19522;45.656;11.302;2024-02-23T09:33:07;6.80;;;3.90;;
33160;SDS011;19522;45.656;11.302;2024-02-23T09:35:33;5.40;;;3.80;;
33160;SDS011;19522;45.656;11.302;2024-02-23T09:37:59;3.75;;;3.00;;
33160;SDS011;19522;45.656;11.302;2024-02-23T09:40:24;4.43;;;3.03;;
33160;SDS011;19522;45.656;11.302;2024-02-23T09:42:52;4.90;;;3.15;;
33160;SDS011;19522;45.656;11.302;2024-02-23T09:45:22;14.63;;;10.43;;
33160;SDS011;19522;45.656;11.302;2024-02-23T09:47:49;17.40;;;9.63;;
33160;SDS011;19522;45.656;11.302;2024-02-23T09:50:15;10.20;;;6.57;;
33160;SDS011;19522;45.656;11.302;2024-02-23T09:52:42;7.72;;;4.38;;
33160;SDS011;19522;45.656;11.302;2024-02-23T09:55:08;6.57;;;3.05;;
33160;SDS011;19522;45.656;11.302;2024-02-23T09:57:35;3.70;;;2.80;;
33160;SDS011;19522;45.656;11.302;2024-02-23T10:00:01;8.65;;;5.25;;
33160;SDS011;19522;45.656;11.302;2024-02-23T10:02:31;6.28;;;4.15;;
33160;SDS011;19522;45.656;11.302;2024-02-23T10:04:57;3.88;;;3.00;;
33160;SDS011;19522;45.656;11.302;2024-02-23T10:07:25;2.92;;;2.42;;
33160;SDS011;19522;45.656;11.302;2024-02-23T10:09:50;4.68;;;3.08;;
33160;SDS011;19522;45.656;11.302;2024-02-23T10:12:16;4.50;;;2.83;;
33160;SDS011;19522;45.656;11.302;2024-02-23T10:14:41;3.92;;;2.75;;
33160;SDS011;19522;45.656;11.302;2024-02-23T10:17:07;4.90;;;2.92;;
33160;SDS011;19522;45.656;11.302;2024-02-23T10:19:33;4.07;;;2.80;;
33160;SDS011;19522;45.656;11.302;2024-02-23T10:21:59;4.80;;;2.90;;
33160;SDS011;19522;45.656;11.302;2024-02-23T10:24:24;6.25;;;3.78;;
33160;SDS011;19522;45.656;11.302;2024-02-23T10:26:51;5.25;;;4.20;;
33160;SDS011;19522;45.656;11.302;2024-02-23T10:29:17;6.55;;;4.47;;
33160;SDS011;19522;45.656;11.302;2024-02-23T10:31:42;5.72;;;3.17;;
33160;SDS011;19522;45.656;11.302;2024-02-23T10:34:12;7.25;;;3.50;;
33160;SDS011;19522;45.656;11.302;2024-02-23T10:36:42;4.50;;;3.20;;
33160;SDS011;19522;45.656;11.302;2024-02-23T10:39:10;4.70;;;3.05;;
33160;SDS011;19522;45.656;11.302;2024-02-23T10:41:36;4.18;;;3.25;;
33160;SDS011;19522;45.656;11.302;2024-02-23T10:44:17;4.53;;;3.05;;
33160;SDS011;19522;45.656;11.302;2024-02-23T10:46:43;4.90;;;3.38;;
33160;SDS011;19522;45.656;11.302;2024-02-23T10:49:10;5.32;;;3.22;;
33160;SDS011;19522;45.656;11.302;2024-02-23T10:51:38;5.75;;;3.88;;
33160;SDS011;19522;45.656;11.302;2024-02-23T10:54:06;7.15;;;4.82;;
33160;SDS011;19522;45.656;11.302;2024-02-23T10:56:31;8.75;;;5.38;;
33160;SDS011;19522;45.656;11.302;2024-02-23T10:58:57;6.30;;;4.60;;
33160;SDS011;19522;45.656;11.302;2024-02-23T11:01:22;9.98;;;6.38;;
33160;SDS011;19522;45.656;11.302;2024-02-23T11:03:49;7.55;;;5.68;;
33160;SDS011;19522;45.656;11.302;2024-02-23T11:06:19;6.10;;;3.80;;
33160;SDS011;19522;45.656;11.302;2024-02-23T11:08:47;4.50;;;3.20;;
33160;SDS011;19522;45.656;11.302;2024-02-23T11:11:15;4.38;;;3.25;;
33160;SDS011;19522;45.656;11.302;2024-02-23T11:13:42;3.80;;;2.95;;
33160;SDS011;19522;45.656;11.302;2024-02-23T11:16:09;4.97;;;3.53;;
33160;SDS011;19522;45.656;11.302;2024-02-23T11:18:35;6.15;;;3.60;;
33160;SDS011;19522;45.656;11.302;2024-02-23T11:21:02;5.28;;;3.83;;
33160;SDS011;19522;45.656;11.302;2024-02-23T11:23:41;6.68;;;4.57;;
33160;SDS011;19522;45.656;11.302;2024-02-23T11:26:11;7.15;;;5.35;;
33160;SDS011;19522;45.656;11.302;2024-02-23T11:31:15;6.85;;;5.32;;
33160;SDS011;19522;45.656;11.302;2024-02-23T11:33:56;8.30;;;4.97;;
33160;SDS011;19522;45.656;11.302;2024-02-23T11:38:52;8.48;;;5.60;;
33160;SDS011;19522;45.656;11.302;2024-02-23T11:41:19;6.97;;;5.40;;
33160;SDS011;19522;45.656;11.302;2024-02-23T11:43:46;6.20;;;4.57;;
33160;SDS011;19522;45.656;11.302;2024-02-23T11:46:18;7.30;;;4.38;;
33160;SDS011;19522;45.656;11.302;2024-02-23T11:48:44;6.05;;;4.47;;
33160;SDS011;19522;45.656;11.302;2024-02-23T11:51:14;5.78;;;3.40;;
33160;SDS011;19522;45.656;11.302;2024-02-23T11:53:40;5.88;;;4.13;;
33160;SDS011;19522;45.656;11.302;2024-02-23T11:56:06;4.85;;;3.05;;
33160;SDS011;19522;45.656;11.302;2024-02-23T11:58:32;6.00;;;3.33;;
33160;SDS011;19522;45.656;11.302;2024-02-23T12:00:58;6.40;;;4.10;;
33160;SDS011;19522;45.656;11.302;2024-02-23T12:03:28;9.50;;;6.22;;
33160;SDS011;19522;45.656;11.302;2024-02-23T12:05:58;7.47;;;6.50;;
33160;SDS011;19522;45.656;11.302;2024-02-23T12:08:27;8.30;;;6.93;;
33160;SDS011;19522;45.656;11.302;2024-02-23T12:10:54;7.13;;;5.80;;
33160;SDS011;19522;45.656;11.302;2024-02-23T12:13:20;6.88;;;5.45;;
33160;SDS011;19522;45.656;11.302;2024-02-23T12:15:55;5.90;;;5.10;;
33160;SDS011;19522;45.656;11.302;2024-02-23T12:18:21;6.63;;;5.38;;
33160;SDS011;19522;45.656;11.302;2024-02-23T12:20:48;6.63;;;5.10;;
33160;SDS011;19522;45.656;11.302;2024-02-23T12:23:14;7.32;;;5.68;;
33160;SDS011;19522;45.656;11.302;2024-02-23T12:25:40;5.90;;;4.78;;
33160;SDS011;19522;45.656;11.302;2024-02-23T12:28:06;5.47;;;4.55;;
33160;SDS011;19522;45.656;11.302;2024-02-23T12:30:31;6.22;;;4.82;;
33160;SDS011;19522;45.656;11.302;2024-02-23T12:33:06;5.65;;;4.68;;
33160;SDS011;19522;45.656;11.302;2024-02-23T12:35:36;6.93;;;4.40;;
33160;SDS011;19522;45.656;11.302;2024-02-23T12:38:01;7.28;;;5.45;;
33160;SDS011;19522;45.656;11.302;2024-02-23T12:40:27;5.95;;;4.82;;
33160;SDS011;19522;45.656;11.302;2024-02-23T12:42:52;7.85;;;5.28;;
33160;SDS011;19522;45.656;11.302;2024-02-23T12:45:18;8.27;;;6.05;;
33160;SDS011;19522;45.656;11.302;2024-02-23T12:47:43;6.20;;;5.40;;
33160;SDS011;19522;45.656;11.302;2024-02-23T12:50:09;6.82;;;5.25;;
33160;SDS011;19522;45.656;11.302;2024-02-23T12:52:35;6.40;;;5.03;;
33160;SDS011;19522;45.656;11.302;2024-02-23T12:55:00;6.78;;;5.10;;
33160;SDS011;19522;45.656;11.302;2024-02-23T12:57:26;10.13;;;6.63;;
33160;SDS011;19522;45.656;11.302;2024-02-23T12:59:51;11.40;;;8.07;;
33160;SDS011;19522;45.656;11.302;2024-02-23T13:02:17;11.52;;;8.90;;
33160;SDS011;19522;45.656;11.302;2024-02-23T13:04:43;13.02;;;8.50;;
33160;SDS011;19522;45.656;11.302;2024-02-23T13:07:13;10.77;;;7.47;;
33160;SDS011;19522;45.656;11.302;2024-02-23T13:09:40;13.52;;;8.88;;
33160;SDS011;19522;45.656;11.302;2024-02-23T13:12:05;14.93;;;9.75;;
33160;SDS011;19522;45.656;11.302;2024-02-23T13:14:31;15.98;;;11.13;;
33160;SDS011;19522;45.656;11.302;2024-02-23T13:16:57;11.35;;;8.02;;
33160;SDS011;19522;45.656;11.302;2024-02-23T13:19:23;10.02;;;6.22;;
33160;SDS011;19522;45.656;11.302;2024-02-23T13:21:48;8.88;;;6.10;;
33160;SDS011;19522;45.656;11.302;2024-02-23T13:24:15;8.88;;;6.43;;
33160;SDS011;19522;45.656;11.302;2024-02-23T13:26:40;10.95;;;7.95;;
33160;SDS011;19522;45.656;11.302;2024-02-23T13:29:06;9.63;;;7.45;;
33160;SDS011;19522;45.656;11.302;2024-02-23T13:31:32;8.40;;;6.70;;
33160;SDS011;19522;45.656;11.302;2024-02-23T13:33:57;9.75;;;6.63;;
33160;SDS011;19522;45.656;11.302;2024-02-23T13:36:23;8.65;;;7.05;;
33160;SDS011;19522;45.656;11.302;2024-02-23T13:38:48;8.63;;;6.97;;
33160;SDS011;19522;45.656;11.302;2024-02-23T13:41:15;8.50;;;7.10;;
33160;SDS011;19522;45.656;11.302;2024-02-23T13:43:41;11.70;;;7.20;;
33160;SDS011;19522;45.656;11.302;2024-02-23T13:46:06;9.25;;;7.45;;
33160;SDS011;19522;45.656;11.302;2024-02-23T13:48:32;9.90;;;6.72;;
33160;SDS011;19522;45.656;11.302;2024-02-23T13:50:57;8.50;;;6.70;;
33160;SDS011;19522;45.656;11.302;2024-02-23T13:53:28;11.73;;;6.57;;
33160;SDS011;19522;45.656;11.302;2024-02-23T13:55:53;8.80;;;5.93;;
33160;SDS011;19522;45.656;11.302;2024-02-23T13:58:19;7.50;;;6.40;;
33160;SDS011;19522;45.656;11.302;2024-02-23T14:00:44;9.93;;;7.90;;
33160;SDS011;19522;45.656;11.302;2024-02-23T14:03:11;9.95;;;7.60;;
33160;SDS011;19522;45.656;11.302;2024-02-23T14:05:43;13.98;;;9.48;;
33160;SDS011;19522;45.656;11.302;2024-02-23T14:08:10;13.35;;;10.20;;
33160;SDS011;19522;45.656;11.302;2024-02-23T14:10:36;14.20;;;9.52;;
33160;SDS011;19522;45.656;11.302;2024-02-23T14:13:01;10.07;;;9.02;;
33160;SDS011;19522;45.656;11.302;2024-02-23T14:15:27;11.45;;;9.40;;
33160;SDS011;19522;45.656;11.302;2024-02-23T14:17:52;13.27;;;10.45;;
33160;SDS011;19522;45.656;11.302;2024-02-23T14:20:18;13.70;;;10.95;;
33160;SDS011;19522;45.656;11.302;2024-02-23T14:22:43;12.38;;;9.57;;
33160;SDS011;19522;45.656;11.302;2024-02-23T14:25:09;15.05;;;10.02;;
33160;SDS011;19522;45.656;11.302;2024-02-23T14:27:35;14.85;;;11.27;;
33160;SDS011;19522;45.656;11.302;2024-02-23T14:30:00;13.27;;;10.13;;
33160;SDS011;19522;45.656;11.302;2024-02-23T14:32:26;7.95;;;6.13;;
33160;SDS011;19522;45.656;11.302;2024-02-23T14:34:51;6.03;;;4.90;;